sensor_id;sensor_type;location;lat;lon;timestamp;P1;durP1;ratioP1;P2;durP2;ratioP2
28523;SDS011;15734;50.904;6.922;2024-01-15T00:01:17;47.40;;;16.50;;
28523;SDS011;15734;50.904;6.922;2024-01-15T00:03:43;46.00;;;18.20;;
28523;SDS011;15734;50.904;6.922;2024-01-15T00:06:08;56.03;;;19.83;;
28523;SDS011;15734;50.904;6.922;2024-01-15T00:08:34;59.83;;;19.75;;
28523;SDS011;15734;50.904;6.922;2024-01-15T00:11:00;64.10;;;20.48;;
28523;SDS011;15734;50.904;6.922;2024-01-15T00:13:26;58.70;;;19.95;;
28523;SDS011;15734;50.904;6.922;2024-01-15T00:15:52;63.22;;;21.85;;
28523;SDS011;15734;50.904;6.922;2024-01-15T00:18:18;71.60;;;20.10;;
28523;SDS011;15734;50.904;6.922;2024-01-15T00:20:44;70.40;;;24.27;;
28523;SDS011;15734;50.904;6.922;2024-01-15T00:23:10;70.47;;;20.55;;
28523;SDS011;15734;50.904;6.922;2024-01-15T00:25:36;72.18;;;21.75;;
28523;SDS011;15734;50.904;6.922;2024-01-15T00:28:02;62.92;;;19.83;;
28523;SDS011;15734;50.904;6.922;2024-01-15T00:30:28;63.55;;;22.63;;
28523;SDS011;15734;50.904;6.922;2024-01-15T00:32:54;70.05;;;22.13;;
28523;SDS011;15734;50.904;6.922;2024-01-15T00:35:20;63.28;;;20.83;;
28523;SDS011;15734;50.904;6.922;2024-01-15T00:37:46;64.47;;;22.40;;
28523;SDS011;15734;50.904;6.922;2024-01-15T00:40:12;70.97;;;20.77;;
28523;SDS011;15734;50.904;6.922;2024-01-15T00:42:37;70.35;;;21.67;;
28523;SDS011;15734;50.904;6.922;2024-01-15T00:45:04;70.28;;;23.08;;
28523;SDS011;15734;50.904;6.922;2024-01-15T00:47:32;66.85;;;19.92;;
28523;SDS011;15734;50.904;6.922;2024-01-15T00:49:58;64.82;;;20.88;;
28523;SDS011;15734;50.904;6.922;2024-01-15T00:52:24;65.50;;;22.55;;
28523;SDS011;15734;50.904;6.922;2024-01-15T00:54:50;64.60;;;20.48;;
28523;SDS011;15734;50.904;6.922;2024-01-15T00:57:16;70.47;;;22.05;;
28523;SDS011;15734;50.904;6.922;2024-01-15T00:59:44;65.60;;;22.67;;
28523;SDS011;15734;50.904;6.922;2024-01-15T01:02:09;71.03;;;24.52;;
28523;SDS011;15734;50.904;6.922;2024-01-15T01:04:35;65.65;;;22.35;;
28523;SDS011;15734;50.904;6.922;2024-01-15T01:07:01;75.38;;;22.60;;
28523;SDS011;15734;50.904;6.922;2024-01-15T01:09:27;62.00;;;22.55;;
28523;SDS011;15734;50.904;6.922;2024-01-15T01:11:55;65.63;;;21.40;;
28523;SDS011;15734;50.904;6.922;2024-01-15T01:14:21;67.95;;;22.38;;
28523;SDS011;15734;50.904;6.922;2024-01-15T01:16:47;65.28;;;21.90;;
28523;SDS011;15734;50.904;6.922;2024-01-15T01:19:12;63.63;;;21.80;;
28523;SDS011;15734;50.904;6.922;2024-01-15T01:21:38;68.68;;;23.33;;
28523;SDS011;15734;50.904;6.922;2024-01-15T01:24:04;74.82;;;23.45;;
28523;SDS011;15734;50.904;6.922;2024-01-15T01:26:30;82.70;;;24.08;;
28523;SDS011;15734;50.904;6.922;2024-01-15T01:28:56;77.68;;;23.63;;
28523;SDS011;15734;50.904;6.922;2024-01-15T01:31:23;74.55;;;22.60;;
28523;SDS011;15734;50.904;6.922;2024-01-15T01:33:49;80.07;;;23.73;;
28523;SDS011;15734;50.904;6.922;2024-01-15T01:36:15;72.72;;;23.38;;
28523;SDS011;15734;50.904;6.922;2024-01-15T01:38:41;75.40;;;23.05;;
28523;SDS011;15734;50.904;6.922;2024-01-15T01:41:07;78.50;;;24.35;;
28523;SDS011;15734;50.904;6.922;2024-01-15T01:43:33;76.45;;;24.65;;
28523;SDS011;15734;50.904;6.922;2024-01-15T01:46:00;73.32;;;23.55;;
28523;SDS011;15734;50.904;6.922;2024-01-15T01:48:26;65.70;;;22.38;;
28523;SDS011;15734;50.904;6.922;2024-01-15T01:50:57;72.80;;;24.27;;
28523;SDS011;15734;50.904;6.922;2024-01-15T01:53:23;78.88;;;25.17;;
28523;SDS011;15734;50.904;6.922;2024-01-15T01:55:49;74.47;;;24.90;;
28523;SDS011;15734;50.904;6.922;2024-01-15T01:58:16;72.82;;;25.77;;
28523;SDS011;15734;50.904;6.922;2024-01-15T02:00:42;84.75;;;25.08;;
28523;SDS011;15734;50.904;6.922;2024-01-15T02:03:08;76.38;;;24.52;;
28523;SDS011;15734;50.904;6.922;2024-01-15T02:05:35;65.35;;;22.83;;
28523;SDS011;15734;50.904;6.922;2024-01-15T02:08:01;72.57;;;23.40;;
28523;SDS011;15734;50.904;6.922;2024-01-15T02:10:26;69.82;;;23.90;;
28523;SDS011;15734;50.904;6.922;2024-01-15T02:12:52;77.00;;;24.83;;
28523;SDS011;15734;50.904;6.922;2024-01-15T02:15:18;56.58;;;21.17;;
28523;SDS011;15734;50.904;6.922;2024-01-15T02:17:57;68.82;;;23.75;;
28523;SDS011;15734;50.904;6.922;2024-01-15T02:20:24;61.38;;;21.40;;
28523;SDS011;15734;50.904;6.922;2024-01-15T02:22:50;65.88;;;22.13;;
28523;SDS011;15734;50.904;6.922;2024-01-15T02:25:16;61.20;;;22.30;;
28523;SDS011;15734;50.904;6.922;2024-01-15T02:27:42;76.82;;;22.77;;
28523;SDS011;15734;50.904;6.922;2024-01-15T02:30:08;74.53;;;24.92;;
28523;SDS011;15734;50.904;6.922;2024-01-15T02:32:35;70.65;;;22.25;;
28523;SDS011;15734;50.904;6.922;2024-01-15T02:35:01;63.42;;;22.25;;
28523;SDS011;15734;50.904;6.922;2024-01-15T02:37:27;75.10;;;23.25;;
28523;SDS011;15734;50.904;6.922;2024-01-15T02:39:53;68.03;;;22.35;;
28523;SDS011;15734;50.904;6.922;2024-01-15T02:42:19;66.45;;;22.58;;
28523;SDS011;15734;50.904;6.922;2024-01-15T02:44:45;66.82;;;23.13;;
28523;SDS011;15734;50.904;6.922;2024-01-15T02:47:11;67.43;;;23.98;;
28523;SDS011;15734;50.904;6.922;2024-01-15T02:49:36;61.03;;;22.67;;
28523;SDS011;15734;50.904;6.922;2024-01-15T02:52:02;67.15;;;22.50;;
28523;SDS011;15734;50.904;6.922;2024-01-15T02:54:28;65.70;;;23.05;;
28523;SDS011;15734;50.904;6.922;2024-01-15T02:56:54;68.10;;;22.58;;
28523;SDS011;15734;50.904;6.922;2024-01-15T02:59:20;60.70;;;20.60;;
28523;SDS011;15734;50.904;6.922;2024-01-15T03:01:46;76.70;;;27.05;;
28523;SDS011;15734;50.904;6.922;2024-01-15T03:04:12;69.28;;;23.88;;
28523;SDS011;15734;50.904;6.922;2024-01-15T03:06:38;60.72;;;23.25;;
28523;SDS011;15734;50.904;6.922;2024-01-15T03:09:04;67.20;;;23.13;;
28523;SDS011;15734;50.904;6.922;2024-01-15T03:11:36;55.92;;;22.52;;
28523;SDS011;15734;50.904;6.922;2024-01-15T03:14:02;64.80;;;22.05;;
28523;SDS011;15734;50.904;6.922;2024-01-15T03:16:28;62.60;;;21.48;;
28523;SDS011;15734;50.904;6.922;2024-01-15T03:18:54;63.63;;;22.00;;
28523;SDS011;15734;50.904;6.922;2024-01-15T03:21:20;55.60;;;21.35;;
28523;SDS011;15734;50.904;6.922;2024-01-15T03:23:46;55.90;;;23.67;;
28523;SDS011;15734;50.904;6.922;2024-01-15T03:26:12;57.40;;;22.38;;
28523;SDS011;15734;50.904;6.922;2024-01-15T03:28:37;67.72;;;21.80;;
28523;SDS011;15734;50.904;6.922;2024-01-15T03:31:03;68.22;;;24.15;;
28523;SDS011;15734;50.904;6.922;2024-01-15T03:33:29;65.63;;;22.02;;
28523;SDS011;15734;50.904;6.922;2024-01-15T03:35:55;60.83;;;21.38;;
28523;SDS011;15734;50.904;6.922;2024-01-15T03:38:22;51.75;;;22.02;;
28523;SDS011;15734;50.904;6.922;2024-01-15T03:40:48;58.97;;;23.30;;
28523;SDS011;15734;50.904;6.922;2024-01-15T03:43:14;62.05;;;23.40;;
28523;SDS011;15734;50.904;6.922;2024-01-15T03:45:40;60.00;;;22.67;;
28523;SDS011;15734;50.904;6.922;2024-01-15T03:48:06;54.80;;;23.05;;
28523;SDS011;15734;50.904;6.922;2024-01-15T03:50:32;69.88;;;24.98;;
28523;SDS011;15734;50.904;6.922;2024-01-15T03:52:58;60.47;;;23.80;;
28523;SDS011;15734;50.904;6.922;2024-01-15T03:55:24;66.65;;;23.73;;
28523;SDS011;15734;50.904;6.922;2024-01-15T03:57:50;67.20;;;23.48;;
28523;SDS011;15734;50.904;6.922;2024-01-15T04:00:16;70.38;;;24.65;;
28523;SDS011;15734;50.904;6.922;2024-01-15T04:02:42;59.00;;;21.08;;
28523;SDS011;15734;50.904;6.922;2024-01-15T04:05:09;66.07;;;22.23;;
28523;SDS011;15734;50.904;6.922;2024-01-15T04:07:35;55.50;;;22.92;;
28523;SDS011;15734;50.904;6.922;2024-01-15T04:10:01;65.65;;;26.13;;
28523;SDS011;15734;50.904;6.922;2024-01-15T04:12:27;56.38;;;23.15;;
28523;SDS011;15734;50.904;6.922;2024-01-15T04:14:53;57.78;;;21.85;;
28523;SDS011;15734;50.904;6.922;2024-01-15T04:17:19;67.65;;;24.63;;
28523;SDS011;15734;50.904;6.922;2024-01-15T04:19:46;66.53;;;24.15;;
28523;SDS011;15734;50.904;6.922;2024-01-15T04:22:13;63.45;;;22.60;;
28523;SDS011;15734;50.904;6.922;2024-01-15T04:24:39;67.53;;;22.20;;
28523;SDS011;15734;50.904;6.922;2024-01-15T04:27:05;66.47;;;23.85;;
28523;SDS011;15734;50.904;6.922;2024-01-15T04:29:31;71.32;;;23.25;;
28523;SDS011;15734;50.904;6.922;2024-01-15T04:31:57;64.43;;;23.05;;
28523;SDS011;15734;50.904;6.922;2024-01-15T04:34:23;52.55;;;20.10;;
28523;SDS011;15734;50.904;6.922;2024-01-15T04:36:49;59.83;;;23.58;;
28523;SDS011;15734;50.904;6.922;2024-01-15T04:39:15;56.95;;;23.00;;
28523;SDS011;15734;50.904;6.922;2024-01-15T04:41:41;61.55;;;22.05;;
28523;SDS011;15734;50.904;6.922;2024-01-15T04:44:07;56.20;;;21.65;;
28523;SDS011;15734;50.904;6.922;2024-01-15T04:46:33;54.35;;;21.05;;
28523;SDS011;15734;50.904;6.922;2024-01-15T04:48:59;60.22;;;21.63;;
28523;SDS011;15734;50.904;6.922;2024-01-15T04:51:25;46.72;;;19.38;;
28523;SDS011;15734;50.904;6.922;2024-01-15T04:53:50;64.28;;;22.20;;
28523;SDS011;15734;50.904;6.922;2024-01-15T04:56:16;50.45;;;19.08;;
28523;SDS011;15734;50.904;6.922;2024-01-15T04:58:43;49.25;;;18.95;;
28523;SDS011;15734;50.904;6.922;2024-01-15T05:01:09;55.17;;;19.45;;
28523;SDS011;15734;50.904;6.922;2024-01-15T05:03:35;43.38;;;17.90;;
28523;SDS011;15734;50.904;6.922;2024-01-15T05:06:01;46.67;;;17.42;;
28523;SDS011;15734;50.904;6.922;2024-01-15T05:08:27;47.38;;;18.60;;
28523;SDS011;15734;50.904;6.922;2024-01-15T05:10:53;48.70;;;17.45;;
28523;SDS011;15734;50.904;6.922;2024-01-15T05:13:19;48.00;;;18.98;;
28523;SDS011;15734;50.904;6.922;2024-01-15T05:15:45;47.03;;;19.02;;
28523;SDS011;15734;50.904;6.922;2024-01-15T05:18:11;40.67;;;17.05;;
28523;SDS011;15734;50.904;6.922;2024-01-15T05:20:37;48.42;;;17.90;;
28523;SDS011;15734;50.904;6.922;2024-01-15T05:23:03;41.25;;;16.55;;
28523;SDS011;15734;50.904;6.922;2024-01-15T05:25:29;43.40;;;17.15;;
28523;SDS011;15734;50.904;6.922;2024-01-15T05:27:55;43.35;;;17.05;;
28523;SDS011;15734;50.904;6.922;2024-01-15T05:30:21;49.03;;;18.65;;
28523;SDS011;15734;50.904;6.922;2024-01-15T05:32:47;38.70;;;16.52;;
28523;SDS011;15734;50.904;6.922;2024-01-15T05:35:13;49.72;;;19.33;;
28523;SDS011;15734;50.904;6.922;2024-01-15T05:37:42;40.08;;;16.08;;
28523;SDS011;15734;50.904;6.922;2024-01-15T05:40:09;36.95;;;14.27;;
28523;SDS011;15734;50.904;6.922;2024-01-15T05:42:35;43.22;;;15.27;;
28523;SDS011;15734;50.904;6.922;2024-01-15T05:45:01;40.42;;;15.18;;
28523;SDS011;15734;50.904;6.922;2024-01-15T05:47:29;36.53;;;14.65;;
28523;SDS011;15734;50.904;6.922;2024-01-15T05:49:55;38.70;;;13.85;;
28523;SDS011;15734;50.904;6.922;2024-01-15T05:52:21;35.08;;;13.73;;
28523;SDS011;15734;50.904;6.922;2024-01-15T05:54:47;41.75;;;13.60;;
28523;SDS011;15734;50.904;6.922;2024-01-15T05:57:13;34.42;;;14.85;;
28523;SDS011;15734;50.904;6.922;2024-01-15T05:59:39;35.35;;;13.25;;
28523;SDS011;15734;50.904;6.922;2024-01-15T06:02:05;32.65;;;14.57;;
28523;SDS011;15734;50.904;6.922;2024-01-15T06:04:31;30.42;;;13.93;;
28523;SDS011;15734;50.904;6.922;2024-01-15T06:06:57;32.60;;;14.05;;
28523;SDS011;15734;50.904;6.922;2024-01-15T06:09:23;37.38;;;14.02;;
28523;SDS011;15734;50.904;6.922;2024-01-15T06:11:49;34.80;;;14.85;;
28523;SDS011;15734;50.904;6.922;2024-01-15T06:14:15;37.00;;;17.25;;
28523;SDS011;15734;50.904;6.922;2024-01-15T06:16:41;36.45;;;16.42;;
28523;SDS011;15734;50.904;6.922;2024-01-15T06:19:07;35.08;;;14.93;;
28523;SDS011;15734;50.904;6.922;2024-01-15T06:21:33;36.88;;;16.52;;
28523;SDS011;15734;50.904;6.922;2024-01-15T06:23:59;40.05;;;17.58;;
28523;SDS011;15734;50.904;6.922;2024-01-15T06:26:25;40.33;;;18.13;;
28523;SDS011;15734;50.904;6.922;2024-01-15T06:28:51;41.55;;;17.73;;
28523;SDS011;15734;50.904;6.922;2024-01-15T06:31:17;38.72;;;15.85;;
28523;SDS011;15734;50.904;6.922;2024-01-15T06:33:43;49.28;;;18.70;;
28523;SDS011;15734;50.904;6.922;2024-01-15T06:36:12;47.58;;;16.50;;
28523;SDS011;15734;50.904;6.922;2024-01-15T06:38:38;44.28;;;18.33;;
28523;SDS011;15734;50.904;6.922;2024-01-15T06:41:04;38.35;;;17.25;;
28523;SDS011;15734;50.904;6.922;2024-01-15T06:43:30;49.40;;;18.65;;
28523;SDS011;15734;50.904;6.922;2024-01-15T06:45:56;49.17;;;19.95;;
28523;SDS011;15734;50.904;6.922;2024-01-15T06:48:22;45.10;;;18.75;;
28523;SDS011;15734;50.904;6.922;2024-01-15T06:50:48;44.40;;;18.13;;
28523;SDS011;15734;50.904;6.922;2024-01-15T06:53:14;41.40;;;17.33;;
28523;SDS011;15734;50.904;6.922;2024-01-15T06:55:40;37.75;;;16.88;;
28523;SDS011;15734;50.904;6.922;2024-01-15T06:58:06;40.80;;;16.75;;
28523;SDS011;15734;50.904;6.922;2024-01-15T07:00:32;41.35;;;16.85;;
28523;SDS011;15734;50.904;6.922;2024-01-15T07:02:58;49.90;;;20.70;;
28523;SDS011;15734;50.904;6.922;2024-01-15T07:05:24;46.53;;;20.23;;
28523;SDS011;15734;50.904;6.922;2024-01-15T07:07:50;43.75;;;17.70;;
28523;SDS011;15734;50.904;6.922;2024-01-15T07:10:16;48.55;;;18.48;;
28523;SDS011;15734;50.904;6.922;2024-01-15T07:12:43;49.55;;;22.00;;
28523;SDS011;15734;50.904;6.922;2024-01-15T07:15:10;36.28;;;17.30;;
28523;SDS011;15734;50.904;6.922;2024-01-15T07:17:36;43.53;;;18.25;;
28523;SDS011;15734;50.904;6.922;2024-01-15T07:20:08;43.92;;;18.08;;
28523;SDS011;15734;50.904;6.922;2024-01-15T07:22:37;52.10;;;19.15;;
28523;SDS011;15734;50.904;6.922;2024-01-15T07:25:03;44.55;;;19.15;;
28523;SDS011;15734;50.904;6.922;2024-01-15T07:27:30;46.63;;;17.60;;
28523;SDS011;15734;50.904;6.922;2024-01-15T07:29:56;44.75;;;18.13;;
28523;SDS011;15734;50.904;6.922;2024-01-15T07:32:22;44.30;;;18.17;;
28523;SDS011;15734;50.904;6.922;2024-01-15T07:34:48;41.80;;;17.35;;
28523;SDS011;15734;50.904;6.922;2024-01-15T07:37:14;44.83;;;18.58;;
28523;SDS011;15734;50.904;6.922;2024-01-15T07:39:40;46.70;;;18.52;;
28523;SDS011;15734;50.904;6.922;2024-01-15T07:42:06;56.30;;;21.40;;
28523;SDS011;15734;50.904;6.922;2024-01-15T07:44:32;58.97;;;24.15;;
28523;SDS011;15734;50.904;6.922;2024-01-15T07:46:58;50.75;;;20.50;;
28523;SDS011;15734;50.904;6.922;2024-01-15T07:49:25;45.25;;;20.10;;
28523;SDS011;15734;50.904;6.922;2024-01-15T07:51:51;52.53;;;21.77;;
28523;SDS011;15734;50.904;6.922;2024-01-15T07:54:17;44.47;;;20.33;;
28523;SDS011;15734;50.904;6.922;2024-01-15T07:56:55;52.22;;;20.98;;
28523;SDS011;15734;50.904;6.922;2024-01-15T07:59:22;53.08;;;22.10;;
28523;SDS011;15734;50.904;6.922;2024-01-15T08:01:48;50.75;;;20.15;;
28523;SDS011;15734;50.904;6.922;2024-01-15T08:04:14;48.15;;;20.73;;
28523;SDS011;15734;50.904;6.922;2024-01-15T08:06:40;56.63;;;23.05;;
28523;SDS011;15734;50.904;6.922;2024-01-15T08:09:06;47.10;;;19.92;;
28523;SDS011;15734;50.904;6.922;2024-01-15T08:11:33;59.92;;;19.63;;
28523;SDS011;15734;50.904;6.922;2024-01-15T08:13:59;51.88;;;19.80;;
28523;SDS011;15734;50.904;6.922;2024-01-15T08:16:25;54.97;;;19.40;;
28523;SDS011;15734;50.904;6.922;2024-01-15T08:18:52;51.20;;;19.77;;
28523;SDS011;15734;50.904;6.922;2024-01-15T08:21:18;51.60;;;20.55;;
28523;SDS011;15734;50.904;6.922;2024-01-15T08:23:44;49.78;;;19.98;;
28523;SDS011;15734;50.904;6.922;2024-01-15T08:26:10;50.42;;;19.90;;
28523;SDS011;15734;50.904;6.922;2024-01-15T08:28:36;47.83;;;17.38;;
28523;SDS011;15734;50.904;6.922;2024-01-15T08:31:02;50.03;;;19.40;;
28523;SDS011;15734;50.904;6.922;2024-01-15T08:33:28;47.17;;;19.58;;
28523;SDS011;15734;50.904;6.922;2024-01-15T08:35:54;46.65;;;20.10;;
28523;SDS011;15734;50.904;6.922;2024-01-15T08:38:20;39.50;;;18.40;;
28523;SDS011;15734;50.904;6.922;2024-01-15T08:40:46;51.85;;;18.45;;
28523;SDS011;15734;50.904;6.922;2024-01-15T08:43:13;43.78;;;18.60;;
28523;SDS011;15734;50.904;6.922;2024-01-15T08:45:38;71.30;;;27.75;;
28523;SDS011;15734;50.904;6.922;2024-01-15T08:48:04;47.20;;;18.83;;
28523;SDS011;15734;50.904;6.922;2024-01-15T08:50:31;45.90;;;17.88;;
28523;SDS011;15734;50.904;6.922;2024-01-15T08:52:58;62.25;;;20.25;;
28523;SDS011;15734;50.904;6.922;2024-01-15T08:55:23;45.53;;;19.65;;
28523;SDS011;15734;50.904;6.922;2024-01-15T08:57:50;51.67;;;20.75;;
28523;SDS011;15734;50.904;6.922;2024-01-15T09:00:16;42.47;;;17.70;;
28523;SDS011;15734;50.904;6.922;2024-01-15T09:02:42;34.70;;;15.10;;
28523;SDS011;15734;50.904;6.922;2024-01-15T09:05:08;38.15;;;15.20;;
28523;SDS011;15734;50.904;6.922;2024-01-15T09:07:34;41.13;;;15.65;;
28523;SDS011;15734;50.904;6.922;2024-01-15T09:10:00;34.92;;;13.93;;
28523;SDS011;15734;50.904;6.922;2024-01-15T09:12:26;43.88;;;16.77;;
28523;SDS011;15734;50.904;6.922;2024-01-15T09:14:52;33.58;;;15.27;;
28523;SDS011;15734;50.904;6.922;2024-01-15T09:17:18;26.63;;;12.27;;
28523;SDS011;15734;50.904;6.922;2024-01-15T09:19:44;30.38;;;11.40;;
28523;SDS011;15734;50.904;6.922;2024-01-15T09:22:12;32.25;;;14.02;;
28523;SDS011;15734;50.904;6.922;2024-01-15T09:24:39;27.52;;;11.70;;
28523;SDS011;15734;50.904;6.922;2024-01-15T09:27:06;22.77;;;11.57;;
28523;SDS011;15734;50.904;6.922;2024-01-15T09:29:32;35.30;;;11.90;;
28523;SDS011;15734;50.904;6.922;2024-01-15T09:31:58;25.40;;;11.30;;
28523;SDS011;15734;50.904;6.922;2024-01-15T09:34:24;28.45;;;11.35;;
28523;SDS011;15734;50.904;6.922;2024-01-15T09:36:50;28.70;;;12.60;;
28523;SDS011;15734;50.904;6.922;2024-01-15T09:39:16;26.23;;;12.70;;
28523;SDS011;15734;50.904;6.922;2024-01-15T09:41:42;26.45;;;12.73;;
28523;SDS011;15734;50.904;6.922;2024-01-15T09:44:09;24.70;;;12.45;;
28523;SDS011;15734;50.904;6.922;2024-01-15T09:46:36;36.20;;;15.18;;
28523;SDS011;15734;50.904;6.922;2024-01-15T09:49:02;28.42;;;12.52;;
28523;SDS011;15734;50.904;6.922;2024-01-15T09:51:30;25.88;;;12.23;;
28523;SDS011;15734;50.904;6.922;2024-01-15T09:53:57;21.70;;;10.68;;
28523;SDS011;15734;50.904;6.922;2024-01-15T09:56:24;23.35;;;10.68;;
28523;SDS011;15734;50.904;6.922;2024-01-15T09:58:50;21.38;;;10.30;;
28523;SDS011;15734;50.904;6.922;2024-01-15T10:01:21;20.52;;;9.07;;
28523;SDS011;15734;50.904;6.922;2024-01-15T10:03:48;23.52;;;10.68;;
28523;SDS011;15734;50.904;6.922;2024-01-15T10:06:17;20.80;;;8.98;;
28523;SDS011;15734;50.904;6.922;2024-01-15T10:08:44;22.58;;;10.23;;
28523;SDS011;15734;50.904;6.922;2024-01-15T10:11:13;16.70;;;9.38;;
28523;SDS011;15734;50.904;6.922;2024-01-15T10:13:39;20.70;;;9.70;;
28523;SDS011;15734;50.904;6.922;2024-01-15T10:16:05;18.45;;;8.23;;
28523;SDS011;15734;50.904;6.922;2024-01-15T10:18:31;21.27;;;8.77;;
28523;SDS011;15734;50.904;6.922;2024-01-15T10:20:57;22.65;;;9.07;;
28523;SDS011;15734;50.904;6.922;2024-01-15T10:23:26;15.73;;;8.20;;
28523;SDS011;15734;50.904;6.922;2024-01-15T10:25:52;18.00;;;8.80;;
28523;SDS011;15734;50.904;6.922;2024-01-15T10:28:18;14.00;;;7.55;;
28523;SDS011;15734;50.904;6.922;2024-01-15T10:30:45;23.38;;;8.80;;
28523;SDS011;15734;50.904;6.922;2024-01-15T10:33:11;14.98;;;8.90;;
28523;SDS011;15734;50.904;6.922;2024-01-15T10:35:37;16.98;;;9.50;;
28523;SDS011;15734;50.904;6.922;2024-01-15T10:38:04;17.60;;;9.60;;
28523;SDS011;15734;50.904;6.922;2024-01-15T10:40:31;17.63;;;8.73;;
28523;SDS011;15734;50.904;6.922;2024-01-15T10:42:57;13.77;;;7.93;;
28523;SDS011;15734;50.904;6.922;2024-01-15T10:45:23;22.10;;;9.52;;
28523;SDS011;15734;50.904;6.922;2024-01-15T10:47:49;16.30;;;8.35;;
28523;SDS011;15734;50.904;6.922;2024-01-15T10:50:16;19.40;;;9.18;;
28523;SDS011;15734;50.904;6.922;2024-01-15T10:52:42;14.68;;;7.07;;
28523;SDS011;15734;50.904;6.922;2024-01-15T10:55:09;16.98;;;8.80;;
28523;SDS011;15734;50.904;6.922;2024-01-15T10:57:38;13.23;;;7.43;;
28523;SDS011;15734;50.904;6.922;2024-01-15T11:00:05;21.08;;;9.50;;
28523;SDS011;15734;50.904;6.922;2024-01-15T11:02:35;15.95;;;7.05;;
28523;SDS011;15734;50.904;6.922;2024-01-15T11:05:02;14.75;;;7.75;;
28523;SDS011;15734;50.904;6.922;2024-01-15T11:07:29;13.00;;;6.88;;
28523;SDS011;15734;50.904;6.922;2024-01-15T11:09:56;16.90;;;8.20;;
28523;SDS011;15734;50.904;6.922;2024-01-15T11:12:25;18.65;;;8.00;;
28523;SDS011;15734;50.904;6.922;2024-01-15T11:14:51;14.73;;;7.00;;
28523;SDS011;15734;50.904;6.922;2024-01-15T11:17:19;13.20;;;7.25;;
28523;SDS011;15734;50.904;6.922;2024-01-15T11:19:49;16.83;;;7.95;;
28523;SDS011;15734;50.904;6.922;2024-01-15T11:25:12;12.93;;;7.40;;
28523;SDS011;15734;50.904;6.922;2024-01-15T11:27:43;15.68;;;9.23;;
28523;SDS011;15734;50.904;6.922;2024-01-15T11:30:09;14.85;;;8.55;;
28523;SDS011;15734;50.904;6.922;2024-01-15T11:32:35;16.70;;;9.93;;
28523;SDS011;15734;50.904;6.922;2024-01-15T11:35:02;24.55;;;12.27;;
28523;SDS011;15734;50.904;6.922;2024-01-15T11:37:56;19.17;;;11.07;;
28523;SDS011;15734;50.904;6.922;2024-01-15T11:40:35;24.48;;;11.55;;
28523;SDS011;15734;50.904;6.922;2024-01-15T11:43:03;23.85;;;13.38;;
28523;SDS011;15734;50.904;6.922;2024-01-15T11:45:29;25.20;;;13.10;;
28523;SDS011;15734;50.904;6.922;2024-01-15T11:50:31;26.92;;;14.57;;
28523;SDS011;15734;50.904;6.922;2024-01-15T11:53:00;22.42;;;11.98;;
28523;SDS011;15734;50.904;6.922;2024-01-15T11:55:27;30.48;;;12.43;;
28523;SDS011;15734;50.904;6.922;2024-01-15T11:57:57;25.85;;;13.98;;
28523;SDS011;15734;50.904;6.922;2024-01-15T12:00:23;24.55;;;11.52;;
28523;SDS011;15734;50.904;6.922;2024-01-15T12:02:49;22.55;;;12.68;;
28523;SDS011;15734;50.904;6.922;2024-01-15T12:05:19;23.92;;;11.88;;
28523;SDS011;15734;50.904;6.922;2024-01-15T12:07:46;24.73;;;13.27;;
28523;SDS011;15734;50.904;6.922;2024-01-15T12:10:20;26.77;;;13.68;;
28523;SDS011;15734;50.904;6.922;2024-01-15T12:12:50;27.67;;;12.60;;
28523;SDS011;15734;50.904;6.922;2024-01-15T12:15:17;28.50;;;13.65;;
28523;SDS011;15734;50.904;6.922;2024-01-15T12:17:43;33.88;;;14.88;;
28523;SDS011;15734;50.904;6.922;2024-01-15T12:20:09;28.83;;;14.77;;
28523;SDS011;15734;50.904;6.922;2024-01-15T12:22:36;33.05;;;14.75;;
28523;SDS011;15734;50.904;6.922;2024-01-15T12:25:03;35.65;;;14.05;;
28523;SDS011;15734;50.904;6.922;2024-01-15T12:27:29;37.40;;;13.75;;
28523;SDS011;15734;50.904;6.922;2024-01-15T12:29:55;26.10;;;13.90;;
28523;SDS011;15734;50.904;6.922;2024-01-15T12:32:21;28.17;;;14.45;;
28523;SDS011;15734;50.904;6.922;2024-01-15T12:34:48;25.90;;;11.60;;
28523;SDS011;15734;50.904;6.922;2024-01-15T12:37:14;28.23;;;11.75;;
28523;SDS011;15734;50.904;6.922;2024-01-15T12:39:42;34.22;;;11.68;;
28523;SDS011;15734;50.904;6.922;2024-01-15T12:42:09;34.15;;;9.77;;
28523;SDS011;15734;50.904;6.922;2024-01-15T12:44:35;21.80;;;8.40;;
28523;SDS011;15734;50.904;6.922;2024-01-15T12:47:03;21.60;;;10.70;;
28523;SDS011;15734;50.904;6.922;2024-01-15T12:49:29;18.48;;;8.85;;
28523;SDS011;15734;50.904;6.922;2024-01-15T12:51:59;22.35;;;7.72;;
28523;SDS011;15734;50.904;6.922;2024-01-15T12:54:25;13.13;;;6.18;;
28523;SDS011;15734;50.904;6.922;2024-01-15T12:56:51;21.13;;;7.07;;
28523;SDS011;15734;50.904;6.922;2024-01-15T12:59:18;15.82;;;6.03;;
28523;SDS011;15734;50.904;6.922;2024-01-15T13:01:44;23.77;;;7.07;;
28523;SDS011;15734;50.904;6.922;2024-01-15T13:04:10;23.38;;;6.50;;
28523;SDS011;15734;50.904;6.922;2024-01-15T13:06:36;21.00;;;7.03;;
28523;SDS011;15734;50.904;6.922;2024-01-15T13:09:05;21.75;;;7.03;;
28523;SDS011;15734;50.904;6.922;2024-01-15T13:11:32;19.65;;;6.18;;
28523;SDS011;15734;50.904;6.922;2024-01-15T13:13:58;13.80;;;6.38;;
28523;SDS011;15734;50.904;6.922;2024-01-15T13:16:24;22.88;;;7.22;;
28523;SDS011;15734;50.904;6.922;2024-01-15T13:18:53;17.02;;;6.00;;
28523;SDS011;15734;50.904;6.922;2024-01-15T13:21:19;18.33;;;6.05;;
28523;SDS011;15734;50.904;6.922;2024-01-15T13:23:45;17.58;;;5.55;;
28523;SDS011;15734;50.904;6.922;2024-01-15T13:26:11;27.05;;;6.82;;
28523;SDS011;15734;50.904;6.922;2024-01-15T13:28:37;14.57;;;6.43;;
28523;SDS011;15734;50.904;6.922;2024-01-15T13:31:03;15.85;;;5.95;;
28523;SDS011;15734;50.904;6.922;2024-01-15T13:33:29;19.08;;;5.95;;
28523;SDS011;15734;50.904;6.922;2024-01-15T13:35:56;15.07;;;5.70;;
28523;SDS011;15734;50.904;6.922;2024-01-15T13:38:23;11.60;;;4.70;;
28523;SDS011;15734;50.904;6.922;2024-01-15T13:40:49;19.25;;;4.47;;
28523;SDS011;15734;50.904;6.922;2024-01-15T13:43:15;13.55;;;4.35;;
28523;SDS011;15734;50.904;6.922;2024-01-15T13:45:43;9.90;;;4.20;;
28523;SDS011;15734;50.904;6.922;2024-01-15T13:48:09;6.60;;;3.78;;
28523;SDS011;15734;50.904;6.922;2024-01-15T13:50:35;7.80;;;3.63;;
28523;SDS011;15734;50.904;6.922;2024-01-15T13:53:02;10.75;;;3.60;;
28523;SDS011;15734;50.904;6.922;2024-01-15T13:55:28;9.68;;;2.53;;
28523;SDS011;15734;50.904;6.922;2024-01-15T13:57:54;6.55;;;2.92;;
28523;SDS011;15734;50.904;6.922;2024-01-15T14:00:20;7.68;;;3.08;;
28523;SDS011;15734;50.904;6.922;2024-01-15T14:02:48;3.97;;;2.42;;
28523;SDS011;15734;50.904;6.922;2024-01-15T14:05:14;4.70;;;2.00;;
28523;SDS011;15734;50.904;6.922;2024-01-15T14:07:41;12.48;;;2.40;;
28523;SDS011;15734;50.904;6.922;2024-01-15T14:10:08;2.42;;;1.80;;
28523;SDS011;15734;50.904;6.922;2024-01-15T14:12:34;2.38;;;1.83;;
28523;SDS011;15734;50.904;6.922;2024-01-15T14:15:01;6.57;;;2.45;;
28523;SDS011;15734;50.904;6.922;2024-01-15T14:17:27;3.58;;;2.45;;
28523;SDS011;15734;50.904;6.922;2024-01-15T14:19:53;3.35;;;2.20;;
28523;SDS011;15734;50.904;6.922;2024-01-15T14:22:19;4.78;;;2.13;;
28523;SDS011;15734;50.904;6.922;2024-01-15T14:24:45;5.05;;;2.28;;
28523;SDS011;15734;50.904;6.922;2024-01-15T14:27:11;6.28;;;2.30;;